Aviation Digital Data Service (ADDS)

Output produced by METARs form (1208 UTC 16 July 2019)
found at http://www.aviationweather.gov/metar/data/
 
FOOB 161100Z /////KT 9999 SCT013 BKN026 27/20 Q1013
FOON 161100Z VRB02KT 9999 BKN012 28/22 Q1017
FOGR 161100Z /////KT 9999 SCT010 OVC027 27/23 Q////
FOOR 161100Z /////KT 8000 BKN005 28/22 Q////
FOOL 161200Z 22008KT 190V250 9999 FEW015 28/23 Q1012 NOSIG
TAF FOOL 161100Z 1612/1718 20008KT 9999 SCT012 BKN035 
     PROB30 
     TEMPO 1618/1624 3500 RA BKN008 OVC026 
     TEMPO 1705/1710 BKN008 OVC025
       
FOOK 161100Z /////KT 9999 SCT010 BKN027 26/21 Q////
FOGM 161100Z /////KT 9999 SCT011 BKN026 27/25 Q////
FOOG 161100Z 19011KT 9999 FEW013 30/21 Q1013
TAF FOOG 161100Z 1612/1712 20010KT 9999 SCT011 BKN030 
     PROB30 
     TEMPO 1621/1703 4000 RA BKN006 OVC025
       
FOOT 161100Z VRB02KT 9999 SCT011 BKN033 30/21 Q////